createdAt,value
2023-05-25T00:00:27.692Z,2.67
2023-05-25T00:02:29.348Z,3.35
2023-05-25T00:04:31.122Z,2.95
2023-05-25T00:06:33.115Z,3.00
2023-05-25T00:08:34.631Z,2.42
2023-05-25T00:10:36.160Z,2.33
2023-05-25T00:12:39.177Z,2.70
2023-05-25T00:14:40.708Z,2.83
2023-05-25T00:16:42.261Z,2.65
2023-05-25T00:18:43.817Z,2.95
2023-05-25T00:20:45.623Z,2.90
2023-05-25T00:22:47.189Z,2.95
2023-05-25T00:24:48.769Z,2.45
2023-05-25T00:26:50.302Z,2.80
2023-05-25T00:28:53.199Z,3.00
2023-05-25T00:30:54.785Z,2.60
2023-05-25T00:32:56.465Z,2.65
2023-05-25T00:34:57.999Z,3.55
2023-05-25T00:36:59.559Z,2.85
2023-05-25T00:39:01.118Z,2.85
2023-05-25T00:41:02.700Z,3.70
2023-05-25T00:43:04.284Z,3.35
2023-05-25T00:45:08.374Z,2.85
2023-05-25T00:47:10.514Z,3.15
2023-05-25T00:49:13.876Z,3.50
2023-05-25T00:51:15.861Z,3.10
2023-05-25T00:53:17.449Z,2.92
2023-05-25T00:55:21.261Z,3.10
2023-05-25T00:57:25.191Z,3.03
2023-05-25T00:59:31.228Z,3.50
2023-05-25T01:01:35.676Z,2.92
2023-05-25T01:03:39.614Z,4.18
2023-05-25T01:05:43.073Z,3.10
2023-05-25T01:07:45.767Z,3.38
2023-05-25T01:09:50.108Z,2.75
2023-05-25T01:11:53.077Z,3.00
2023-05-25T01:13:54.649Z,3.13
2023-05-25T01:15:57.005Z,3.58
2023-05-25T01:18:00.059Z,3.17
2023-05-25T01:20:10.426Z,2.88
2023-05-25T01:22:20.270Z,2.95
2023-05-25T01:24:27.994Z,3.70
2023-05-25T01:26:34.294Z,2.90
2023-05-25T01:28:40.710Z,3.35
2023-05-25T01:30:45.697Z,2.75
2023-05-25T01:32:49.245Z,3.92
2023-05-25T01:34:52.194Z,3.22
2023-05-25T01:36:53.910Z,3.05
2023-05-25T01:38:57.673Z,3.22
2023-05-25T01:43:00.619Z,3.22
2023-05-25T01:45:02.291Z,3.25
2023-05-25T01:47:08.838Z,3.38
2023-05-25T01:49:19.545Z,3.30
2023-05-25T01:51:29.497Z,3.40
2023-05-25T01:55:44.174Z,3.45
2023-05-25T01:57:49.213Z,3.50
2023-05-25T01:59:53.179Z,3.45
2023-05-25T02:01:55.645Z,4.05
2023-05-25T02:03:58.024Z,3.05
2023-05-25T02:05:59.864Z,3.15
2023-05-25T02:08:01.485Z,3.55
2023-05-25T02:10:03.700Z,3.72
2023-05-25T02:12:07.352Z,3.00
2023-05-25T02:14:08.938Z,3.40
2023-05-25T02:16:10.636Z,3.92
2023-05-25T02:18:12.334Z,3.53
2023-05-25T02:20:13.987Z,3.70
2023-05-25T02:22:15.587Z,3.53
2023-05-25T02:24:17.177Z,3.10
2023-05-25T02:26:18.760Z,3.50
2023-05-25T02:28:21.651Z,3.38
2023-05-25T02:30:23.224Z,3.28
2023-05-25T02:32:24.795Z,3.58
2023-05-25T02:34:26.373Z,3.25
2023-05-25T02:36:27.892Z,3.58
2023-05-25T02:38:29.428Z,3.42
2023-05-25T02:40:30.967Z,3.15
2023-05-25T02:42:32.514Z,3.42
2023-05-25T02:44:35.448Z,3.53
2023-05-25T02:46:36.989Z,3.30
2023-05-25T02:48:38.552Z,3.92
2023-05-25T02:50:40.082Z,4.05
2023-05-25T02:52:41.581Z,2.75
2023-05-25T02:54:43.099Z,3.85
2023-05-25T02:56:44.681Z,4.07
2023-05-25T02:58:46.206Z,4.25
2023-05-25T03:00:49.423Z,3.20
2023-05-25T03:02:51.053Z,3.60
2023-05-25T03:04:52.611Z,3.22
2023-05-25T03:06:54.250Z,3.80
2023-05-25T03:08:55.769Z,3.35
2023-05-25T03:10:57.276Z,3.92
2023-05-25T03:12:58.820Z,3.65
2023-05-25T03:15:00.354Z,3.67
2023-05-25T03:17:03.646Z,3.92
2023-05-25T03:19:05.177Z,3.63
2023-05-25T03:21:06.880Z,3.83
2023-05-25T03:23:08.433Z,4.05
2023-05-25T03:25:10.466Z,3.42
2023-05-25T03:27:12.195Z,4.20
2023-05-25T03:29:13.755Z,4.55
2023-05-25T03:31:15.275Z,3.60
2023-05-25T03:33:18.161Z,3.42
2023-05-25T03:35:19.662Z,3.60
2023-05-25T03:37:21.235Z,3.50
2023-05-25T03:39:22.789Z,4.05
2023-05-25T03:41:24.486Z,3.60
2023-05-25T03:43:26.635Z,3.33
2023-05-25T03:45:28.299Z,4.10
2023-05-25T03:47:29.902Z,3.60
2023-05-25T03:49:32.824Z,4.18
2023-05-25T03:51:34.355Z,3.63
2023-05-25T03:53:35.880Z,4.43
2023-05-25T03:55:37.432Z,4.50
2023-05-25T03:57:38.972Z,4.30
2023-05-25T03:59:40.532Z,4.32
2023-05-25T04:01:42.090Z,4.13
2023-05-25T04:03:43.978Z,4.07
2023-05-25T04:05:47.220Z,3.88
2023-05-25T04:07:48.789Z,4.32
2023-05-25T04:09:50.312Z,4.70
2023-05-25T04:11:51.838Z,4.85
2023-05-25T04:13:53.335Z,3.50
2023-05-25T04:15:55.712Z,4.47
2023-05-25T04:17:57.314Z,4.05
2023-05-25T04:19:59.039Z,4.20
2023-05-25T04:22:01.950Z,3.88
2023-05-25T04:24:03.744Z,3.95
2023-05-25T04:26:05.459Z,3.88
2023-05-25T04:28:06.964Z,4.70
2023-05-25T04:30:09.132Z,3.80
2023-05-25T04:32:10.645Z,4.05
2023-05-25T04:34:12.167Z,5.32
2023-05-25T04:36:13.710Z,3.85
2023-05-25T04:38:16.606Z,4.32
2023-05-25T04:40:18.181Z,4.15
2023-05-25T04:42:19.926Z,4.53
2023-05-25T04:44:21.441Z,4.40
2023-05-25T04:46:23.317Z,4.13
2023-05-25T04:48:24.980Z,4.93
2023-05-25T04:50:26.681Z,5.25
2023-05-25T04:52:28.193Z,4.50
2023-05-25T04:54:31.117Z,4.28
2023-05-25T04:56:32.683Z,4.15
2023-05-25T04:58:34.253Z,4.35
2023-05-25T05:00:35.751Z,4.45
2023-05-25T05:02:37.346Z,4.95
2023-05-25T05:04:38.900Z,4.50
2023-05-25T05:06:40.422Z,4.53
2023-05-25T05:08:41.966Z,5.20
2023-05-25T05:10:45.028Z,4.20
2023-05-25T05:12:46.754Z,4.82
2023-05-25T05:14:48.591Z,4.55
2023-05-25T05:16:50.819Z,4.63
2023-05-25T05:18:52.395Z,4.75
2023-05-25T05:20:53.940Z,4.57
2023-05-25T05:22:55.583Z,4.57
2023-05-25T05:24:57.095Z,4.38
2023-05-25T05:27:01.048Z,4.22
2023-05-25T05:29:04.181Z,4.47
2023-05-25T05:31:05.715Z,4.95
2023-05-25T05:33:07.371Z,5.20
2023-05-25T05:35:09.430Z,4.38
2023-05-25T05:37:11.024Z,4.25
2023-05-25T05:39:13.793Z,4.05
2023-05-25T05:41:15.355Z,4.22
2023-05-25T05:43:18.320Z,3.80
2023-05-25T05:45:19.837Z,5.22
2023-05-25T05:47:21.326Z,4.13
2023-05-25T05:49:22.841Z,4.82
2023-05-25T05:51:24.348Z,4.25
2023-05-25T05:53:25.879Z,4.03
2023-05-25T05:55:27.371Z,4.10
2023-05-25T05:57:28.891Z,4.70
2023-05-25T05:59:31.859Z,5.22
2023-05-25T06:01:33.365Z,4.20
2023-05-25T06:03:35.066Z,4.60
2023-05-25T06:05:36.645Z,5.93
2023-05-25T06:07:38.335Z,5.55
2023-05-25T06:09:39.851Z,5.15
2023-05-25T06:11:41.448Z,5.10
2023-05-25T06:13:44.212Z,4.90
2023-05-25T06:15:48.253Z,5.03
2023-05-25T06:17:49.785Z,4.65
2023-05-25T06:19:51.460Z,4.45
2023-05-25T06:21:53.184Z,4.53
2023-05-25T06:23:54.781Z,5.78
2023-05-25T06:25:56.322Z,4.70
2023-05-25T06:27:57.843Z,4.95
2023-05-25T06:29:59.428Z,5.18
2023-05-25T06:32:02.472Z,4.57
2023-05-25T06:34:04.076Z,4.50
2023-05-25T06:36:06.619Z,5.22
2023-05-25T06:38:08.167Z,5.13
2023-05-25T06:40:10.764Z,4.80
2023-05-25T06:42:12.277Z,5.13
2023-05-25T06:44:13.822Z,5.43
2023-05-25T06:46:15.503Z,4.60
2023-05-25T06:48:18.456Z,5.75
2023-05-25T06:50:20.182Z,5.43
2023-05-25T06:52:21.703Z,5.20
2023-05-25T06:54:23.226Z,4.95
2023-05-25T06:56:24.869Z,5.35
2023-05-25T06:58:26.401Z,5.88
2023-05-25T07:00:27.986Z,6.00
2023-05-25T07:02:29.514Z,5.25
2023-05-25T07:04:32.469Z,5.50
2023-05-25T07:06:34.031Z,5.30
2023-05-25T07:08:35.584Z,5.82
2023-05-25T07:10:37.153Z,4.82
2023-05-25T07:12:38.678Z,5.40
2023-05-25T07:14:40.283Z,7.15
2023-05-25T07:16:41.899Z,5.57
2023-05-25T07:18:43.450Z,5.28
2023-05-25T07:20:46.414Z,5.95
2023-05-25T07:22:48.004Z,5.40
2023-05-25T07:24:49.898Z,6.68
2023-05-25T07:26:52.309Z,6.60
2023-05-25T07:28:53.890Z,5.40
2023-05-25T07:30:55.395Z,5.75
2023-05-25T07:32:57.157Z,5.90
2023-05-25T07:34:58.729Z,5.70
2023-05-25T07:37:01.665Z,5.55
2023-05-25T07:39:03.319Z,6.25
2023-05-25T07:41:05.021Z,5.45
2023-05-25T07:43:08.263Z,5.15
2023-05-25T07:45:11.306Z,5.75
2023-05-25T07:47:12.972Z,5.30
2023-05-25T07:49:14.662Z,5.40
2023-05-25T07:51:16.323Z,5.47
2023-05-25T07:53:19.779Z,5.88
2023-05-25T07:55:22.283Z,5.95
2023-05-25T07:57:23.894Z,5.63
2023-05-25T07:59:26.243Z,5.72
2023-05-25T08:01:27.937Z,5.50
2023-05-25T08:03:47.427Z,5.75
2023-05-25T08:05:50.901Z,5.60
2023-05-25T08:07:52.423Z,6.05
2023-05-25T08:09:55.329Z,5.85
2023-05-25T08:12:12.802Z,5.93
2023-05-25T08:14:18.382Z,5.80
2023-05-25T08:16:19.967Z,5.20
2023-05-25T08:18:21.596Z,5.70
2023-05-25T08:20:23.287Z,6.53
2023-05-25T08:22:24.873Z,6.38
2023-05-25T08:24:26.446Z,6.72
2023-05-25T08:26:45.465Z,7.00
2023-05-25T08:28:50.871Z,7.10
2023-05-25T08:30:52.459Z,6.20
2023-05-25T08:32:54.187Z,5.75
2023-05-25T08:34:55.812Z,7.30
2023-05-25T08:36:57.713Z,6.15
2023-05-25T08:38:59.275Z,5.65
2023-05-25T08:41:04.185Z,6.05
2023-05-25T08:43:07.126Z,6.10
2023-05-25T08:45:12.478Z,5.97
2023-05-25T08:47:21.949Z,5.93
2023-05-25T08:49:23.673Z,7.05
2023-05-25T08:51:25.627Z,6.78
2023-05-25T08:53:28.709Z,7.45
2023-05-25T08:55:33.450Z,6.28
2023-05-25T08:57:43.777Z,5.93
2023-05-25T08:59:51.972Z,6.63
2023-05-25T09:01:58.876Z,6.47
2023-05-25T09:04:01.529Z,7.57
2023-05-25T09:06:03.303Z,7.25
2023-05-25T09:08:05.477Z,6.53
2023-05-25T09:10:08.710Z,7.07
2023-05-25T09:12:10.818Z,6.63
2023-05-25T09:14:12.576Z,6.70
2023-05-25T09:16:16.403Z,7.13
2023-05-25T09:18:18.114Z,6.68
2023-05-25T09:20:20.239Z,6.90
2023-05-25T09:22:21.866Z,5.93
2023-05-25T09:24:24.016Z,5.60
2023-05-25T09:26:26.078Z,7.20
2023-05-25T09:28:27.910Z,7.22
2023-05-25T09:30:29.602Z,7.18
2023-05-25T09:32:32.689Z,6.30
2023-05-25T09:34:34.748Z,6.95
2023-05-25T09:36:36.330Z,6.07
2023-05-25T09:38:38.006Z,6.88
2023-05-25T09:40:39.703Z,6.63
2023-05-25T09:42:47.650Z,6.43
2023-05-25T09:44:49.214Z,6.20
2023-05-25T09:46:51.246Z,6.43
2023-05-25T09:48:54.634Z,7.03
2023-05-25T09:50:56.868Z,7.18
2023-05-25T09:52:59.770Z,7.05
2023-05-25T09:55:02.038Z,7.10
2023-05-25T09:57:04.062Z,7.22
2023-05-25T09:59:06.398Z,6.93
2023-05-25T10:01:07.998Z,6.80
2023-05-25T10:03:09.606Z,6.20
2023-05-25T10:05:12.552Z,6.75
2023-05-25T10:07:14.560Z,8.27
2023-05-25T10:09:18.540Z,6.80
2023-05-25T10:11:22.498Z,7.60
2023-05-25T10:13:27.082Z,7.20
2023-05-25T10:15:30.562Z,6.97
2023-05-25T10:17:35.708Z,6.95
2023-05-25T10:19:40.180Z,7.55
2023-05-25T10:21:47.755Z,7.75
2023-05-25T10:23:54.289Z,6.38
2023-05-25T10:26:00.483Z,7.47
2023-05-25T10:28:07.470Z,6.75
2023-05-25T10:30:09.851Z,5.93
2023-05-25T10:32:12.594Z,6.43
2023-05-25T10:34:14.742Z,6.43
2023-05-25T10:36:18.949Z,6.20
2023-05-25T10:38:22.515Z,6.63
2023-05-25T10:42:26.290Z,6.63
2023-05-25T10:44:29.201Z,5.45
2023-05-25T10:46:30.900Z,6.97
2023-05-25T10:48:35.964Z,7.15
2023-05-25T10:50:37.612Z,5.88
2023-05-25T10:52:39.174Z,6.65
2023-05-25T10:54:42.114Z,7.40
2023-05-25T10:57:11.236Z,5.78
2023-05-25T10:59:12.900Z,6.10
2023-05-25T11:01:15.630Z,6.43
2023-05-25T11:03:17.258Z,6.53
2023-05-25T11:05:36.354Z,6.78
2023-05-25T11:07:52.921Z,7.05
2023-05-25T11:09:58.893Z,5.60
2023-05-25T11:12:01.401Z,6.18
2023-05-25T11:14:02.944Z,6.35
2023-05-25T11:16:32.073Z,6.30
2023-05-25T11:18:37.631Z,6.72
2023-05-25T11:20:39.247Z,6.43
2023-05-25T11:22:40.829Z,6.82
2023-05-25T11:24:42.659Z,5.85
2023-05-25T11:26:56.850Z,5.55
2023-05-25T11:28:59.313Z,6.30
2023-05-25T11:31:00.967Z,6.15
2023-05-25T11:33:04.584Z,6.30
2023-05-25T11:35:07.364Z,7.45
2023-05-25T11:39:17.581Z,6.93
2023-05-25T11:41:24.203Z,6.90
2023-05-25T11:43:27.286Z,5.78
2023-05-25T11:45:29.483Z,6.55
2023-05-25T11:47:33.116Z,6.22
2023-05-25T11:49:39.434Z,6.00
2023-05-25T11:51:40.984Z,5.93
2023-05-25T11:53:43.427Z,7.47
2023-05-25T11:55:48.950Z,6.30
2023-05-25T11:57:57.706Z,5.20
2023-05-25T12:00:00.609Z,5.97
2023-05-25T12:02:03.609Z,6.65
2023-05-25T12:04:09.434Z,6.10
2023-05-25T12:06:23.883Z,5.60
2023-05-25T12:08:32.326Z,6.22
2023-05-25T12:10:33.872Z,6.35
2023-05-25T12:12:41.908Z,6.40
2023-05-25T12:14:47.401Z,6.13
2023-05-25T12:16:51.042Z,5.63
2023-05-25T12:18:53.900Z,6.07
2023-05-25T12:20:56.634Z,5.47
2023-05-25T12:22:58.332Z,6.38
2023-05-25T12:24:59.923Z,5.72
2023-05-25T12:27:01.552Z,5.82
2023-05-25T12:29:04.551Z,6.28
2023-05-25T12:31:21.843Z,5.70
2023-05-25T12:33:24.785Z,5.75
2023-05-25T12:35:26.337Z,5.32
2023-05-25T12:37:27.923Z,7.40
2023-05-25T12:39:34.240Z,5.90
2023-05-25T12:41:46.997Z,6.07
2023-05-25T12:43:48.589Z,5.90
2023-05-25T12:45:50.106Z,5.90
2023-05-25T12:47:51.697Z,6.47
2023-05-25T12:50:10.773Z,6.22
2023-05-25T12:52:31.862Z,5.95
2023-05-25T12:54:39.022Z,5.85
2023-05-25T12:56:53.858Z,6.03
2023-05-25T12:58:55.397Z,6.00
2023-05-25T13:00:56.990Z,6.43
2023-05-25T13:02:59.412Z,6.50
2023-05-25T13:05:02.399Z,5.75
2023-05-25T13:07:04.677Z,6.07
2023-05-25T13:09:06.221Z,6.20
2023-05-25T13:11:07.732Z,6.20
2023-05-25T13:13:11.220Z,6.65
2023-05-25T13:17:14.323Z,6.00
2023-05-25T13:19:16.176Z,6.40
2023-05-25T13:21:19.073Z,6.32
2023-05-25T13:23:20.623Z,7.20
2023-05-25T13:25:22.645Z,7.70
2023-05-25T13:27:24.303Z,7.10
2023-05-25T13:29:25.864Z,6.78
2023-05-25T13:31:27.440Z,7.30
2023-05-25T13:33:28.992Z,6.43
2023-05-25T13:35:30.531Z,7.28
2023-05-25T13:37:33.424Z,7.43
2023-05-25T13:39:34.973Z,5.88
2023-05-25T13:41:36.526Z,6.55
2023-05-25T13:43:38.069Z,7.72
2023-05-25T13:45:39.850Z,6.22
2023-05-25T13:47:41.496Z,6.07
2023-05-25T13:49:43.086Z,6.50
2023-05-25T13:51:44.659Z,6.10
2023-05-25T13:53:47.533Z,6.53
2023-05-25T13:55:49.119Z,6.82
2023-05-25T13:57:50.705Z,6.53
2023-05-25T13:59:52.254Z,5.78
2023-05-25T14:01:55.859Z,6.43
2023-05-25T14:03:58.031Z,6.05
2023-05-25T14:05:59.612Z,6.20
2023-05-25T14:08:01.175Z,6.00
2023-05-25T14:10:04.679Z,6.38
2023-05-25T14:12:07.839Z,5.65
2023-05-25T14:14:19.453Z,6.32
2023-05-25T14:16:28.960Z,5.72
2023-05-25T14:18:30.612Z,5.60
2023-05-25T14:20:32.223Z,6.20
2023-05-25T14:22:33.834Z,5.65
2023-05-25T14:24:35.339Z,5.82
2023-05-25T14:26:38.249Z,6.15
2023-05-25T14:28:40.948Z,7.00
2023-05-25T14:30:42.478Z,5.28
2023-05-25T14:32:44.101Z,6.15
2023-05-25T14:34:45.823Z,6.00
2023-05-25T14:36:47.346Z,5.82
2023-05-25T14:38:48.830Z,5.75
2023-05-25T14:40:50.364Z,5.75
2023-05-25T14:42:53.257Z,7.18
2023-05-25T14:44:54.814Z,6.07
2023-05-25T14:46:56.573Z,6.63
2023-05-25T14:48:58.179Z,5.85
2023-05-25T14:50:59.713Z,5.15
2023-05-25T14:53:01.252Z,5.93
2023-05-25T14:55:03.029Z,5.82
2023-05-25T14:57:04.850Z,6.07
2023-05-25T14:59:07.855Z,5.82
2023-05-25T15:01:09.475Z,5.93
2023-05-25T15:03:11.072Z,5.63
2023-05-25T15:05:12.679Z,5.95
2023-05-25T15:07:14.341Z,5.43
2023-05-25T15:09:15.885Z,5.13
2023-05-25T15:11:18.129Z,5.35
2023-05-25T15:13:19.696Z,5.45
2023-05-25T15:15:22.585Z,6.03
2023-05-25T15:17:24.189Z,5.43
2023-05-25T15:19:25.696Z,5.68
2023-05-25T15:21:27.252Z,5.70
2023-05-25T15:23:28.800Z,5.50
2023-05-25T15:27:34.778Z,5.88
2023-05-25T15:29:36.382Z,5.15
2023-05-25T15:31:39.300Z,5.13
2023-05-25T15:33:51.986Z,6.03
2023-05-25T15:35:55.640Z,5.68
2023-05-25T15:37:57.216Z,5.03
2023-05-25T15:39:58.748Z,4.95
2023-05-25T15:42:00.316Z,5.20
2023-05-25T15:44:01.882Z,5.40
2023-05-25T15:46:03.474Z,4.93
2023-05-25T15:48:06.522Z,5.50
2023-05-25T15:50:08.663Z,5.72
2023-05-25T15:52:10.170Z,6.15
2023-05-25T15:54:14.667Z,6.18
2023-05-25T15:56:16.470Z,5.28
2023-05-25T15:58:17.997Z,5.97
2023-05-25T16:00:20.174Z,5.70
2023-05-25T16:02:21.813Z,5.53
2023-05-25T16:04:24.823Z,5.43
2023-05-25T16:06:26.441Z,4.88
2023-05-25T16:08:28.008Z,4.82
2023-05-25T16:10:29.531Z,5.68
2023-05-25T16:12:31.118Z,5.10
2023-05-25T16:14:32.667Z,5.43
2023-05-25T16:16:34.230Z,5.07
2023-05-25T16:18:35.914Z,5.47
2023-05-25T16:20:38.870Z,4.55
2023-05-25T16:22:40.484Z,5.22
2023-05-25T16:24:42.028Z,5.53
2023-05-25T16:26:51.041Z,5.63
2023-05-25T16:28:52.588Z,5.10
2023-05-25T16:30:54.109Z,5.57
2023-05-25T16:32:55.689Z,4.60
2023-05-25T16:34:57.482Z,4.88
2023-05-25T16:37:00.368Z,5.78
2023-05-25T16:39:01.880Z,6.03
2023-05-25T16:41:03.447Z,6.05
2023-05-25T16:43:05.126Z,5.50
2023-05-25T16:45:07.661Z,5.55
2023-05-25T16:47:09.270Z,5.05
2023-05-25T16:49:10.839Z,5.35
2023-05-25T16:51:12.693Z,5.20
2023-05-25T16:53:15.578Z,5.57
2023-05-25T16:55:17.230Z,4.50
2023-05-25T16:57:18.828Z,4.90
2023-05-25T16:59:20.412Z,5.18
2023-05-25T17:01:22.094Z,5.30
2023-05-25T17:03:23.845Z,5.07
2023-05-25T17:05:25.502Z,5.55
2023-05-25T17:07:27.071Z,5.35
2023-05-25T17:09:29.956Z,5.38
2023-05-25T17:11:31.469Z,4.72
2023-05-25T17:13:33.016Z,5.57
2023-05-25T17:15:34.555Z,5.30
2023-05-25T17:17:36.123Z,4.70
2023-05-25T17:19:37.660Z,4.93
2023-05-25T17:21:39.160Z,5.32
2023-05-25T17:23:40.699Z,5.05
2023-05-25T17:25:43.723Z,4.88
2023-05-25T17:27:45.335Z,4.80
2023-05-25T17:29:46.863Z,5.40
2023-05-25T17:31:49.078Z,5.03
2023-05-25T17:33:50.821Z,5.50
2023-05-25T17:35:52.372Z,5.13
2023-05-25T17:37:53.931Z,4.95
2023-05-25T17:39:55.461Z,5.47
2023-05-25T17:41:58.383Z,5.32
2023-05-25T17:43:59.950Z,5.45
2023-05-25T17:46:01.562Z,4.95
2023-05-25T17:48:03.371Z,4.50
2023-05-25T17:50:05.969Z,4.80
2023-05-25T17:52:07.490Z,5.22
2023-05-25T17:54:09.075Z,4.95
2023-05-25T17:56:10.628Z,4.68
2023-05-25T17:58:13.526Z,4.93
2023-05-25T18:00:16.189Z,4.78
2023-05-25T18:02:17.931Z,4.45
2023-05-25T18:04:19.934Z,5.20
2023-05-25T18:06:21.573Z,5.00
2023-05-25T18:08:23.110Z,5.03
2023-05-25T18:10:24.625Z,4.90
2023-05-25T18:12:26.155Z,4.88
2023-05-25T18:14:29.009Z,4.45
2023-05-25T18:16:30.660Z,5.20
2023-05-25T18:18:32.253Z,4.78
2023-05-25T18:20:33.933Z,6.38
2023-05-25T18:22:35.474Z,7.18
2023-05-25T18:24:36.976Z,5.68
2023-05-25T18:26:38.544Z,4.45
2023-05-25T18:28:40.084Z,4.35
2023-05-25T18:30:43.377Z,4.93
2023-05-25T18:32:44.976Z,5.55
2023-05-25T18:34:49.965Z,4.78
2023-05-25T18:36:51.512Z,4.80
2023-05-25T18:38:53.091Z,4.68
2023-05-25T18:40:54.650Z,4.97
2023-05-25T18:42:56.202Z,4.65
2023-05-25T18:44:57.718Z,4.32
2023-05-25T18:47:00.673Z,4.55
2023-05-25T18:49:02.174Z,4.80
2023-05-25T18:51:03.914Z,4.70
2023-05-25T18:53:05.468Z,3.97
2023-05-25T18:55:07.866Z,5.22
2023-05-25T18:57:09.515Z,4.50
2023-05-25T18:59:11.070Z,4.63
2023-05-25T19:01:12.799Z,4.50
2023-05-25T19:03:15.874Z,4.20
2023-05-25T19:05:17.522Z,4.70
2023-05-25T19:07:19.087Z,5.30
2023-05-25T19:09:20.618Z,4.68
2023-05-25T19:11:22.160Z,5.45
2023-05-25T19:13:23.712Z,4.85
2023-05-25T19:15:25.235Z,4.30
2023-05-25T19:17:26.806Z,4.80
2023-05-25T19:19:29.730Z,4.70
2023-05-25T19:21:31.258Z,4.60
2023-05-25T19:23:32.792Z,4.40
2023-05-25T19:25:34.287Z,4.45
2023-05-25T19:27:35.888Z,4.97
2023-05-25T19:29:37.448Z,4.65
2023-05-25T19:31:39.004Z,4.90
2023-05-25T19:33:40.615Z,4.85
2023-05-25T19:35:43.718Z,4.97
2023-05-25T19:37:45.482Z,4.78
2023-05-25T19:39:47.307Z,4.82
2023-05-25T19:41:49.131Z,4.53
2023-05-25T19:43:50.695Z,5.50
2023-05-25T19:45:52.253Z,5.05
2023-05-25T19:47:54.668Z,5.07
2023-05-25T19:49:56.197Z,5.13
2023-05-25T19:51:59.134Z,5.07
2023-05-25T19:54:01.250Z,5.10
2023-05-25T19:56:02.820Z,4.45
2023-05-25T19:58:04.443Z,4.60
2023-05-25T20:00:11.594Z,5.00
2023-05-25T20:02:22.799Z,4.65
2023-05-25T20:04:24.725Z,4.32
2023-05-25T20:06:26.651Z,5.10
2023-05-25T20:08:30.122Z,4.40
2023-05-25T20:10:31.729Z,5.07
2023-05-25T20:12:33.333Z,4.20
2023-05-25T20:14:37.202Z,4.97
2023-05-25T20:16:38.863Z,4.95
2023-05-25T20:18:45.495Z,5.15
2023-05-25T20:20:49.759Z,4.70
2023-05-25T20:22:51.407Z,4.68
2023-05-25T20:24:54.332Z,4.80
2023-05-25T20:26:56.045Z,4.30
2023-05-25T20:28:57.608Z,5.20
2023-05-25T20:30:59.309Z,4.55
2023-05-25T20:33:00.962Z,5.03
2023-05-25T20:35:02.577Z,4.82
2023-05-25T20:37:04.250Z,4.43
2023-05-25T20:39:05.775Z,6.18
2023-05-25T20:41:08.646Z,5.53
2023-05-25T20:43:10.185Z,6.32
2023-05-25T20:45:11.749Z,5.72
2023-05-25T20:47:13.309Z,5.60
2023-05-25T20:49:14.922Z,6.38
2023-05-25T20:51:16.558Z,5.32
2023-05-25T20:53:18.129Z,5.63
2023-05-25T20:55:19.809Z,5.40
2023-05-25T20:57:22.684Z,5.93
2023-05-25T20:59:24.233Z,5.68
2023-05-25T21:01:25.760Z,6.63
2023-05-25T21:03:27.500Z,6.18
2023-05-25T21:05:29.227Z,5.75
2023-05-25T21:07:30.904Z,5.95
2023-05-25T21:09:32.413Z,4.85
2023-05-25T21:11:33.977Z,5.00
2023-05-25T21:13:36.865Z,5.38
2023-05-25T21:15:38.438Z,5.22
2023-05-25T21:17:40.247Z,5.35
2023-05-25T21:19:41.851Z,5.00
2023-05-25T21:21:43.408Z,5.72
2023-05-25T21:23:45.235Z,5.85
2023-05-25T21:25:47.134Z,5.30
2023-05-25T21:27:48.948Z,5.40
2023-05-25T21:29:52.098Z,5.53
2023-05-25T21:31:54.012Z,6.93
2023-05-25T21:33:55.563Z,7.78
2023-05-25T21:35:57.079Z,6.07
2023-05-25T21:37:58.770Z,5.13
2023-05-25T21:40:00.288Z,6.03
2023-05-25T21:42:01.852Z,7.85
2023-05-25T21:44:03.416Z,7.22
2023-05-25T21:46:06.287Z,5.70
2023-05-25T21:48:07.938Z,5.32
2023-05-25T21:50:09.826Z,5.30
2023-05-25T21:52:11.400Z,5.20
2023-05-25T21:54:12.955Z,6.07
2023-05-25T21:56:14.577Z,5.88
2023-05-25T21:58:17.616Z,5.53
2023-05-25T22:00:19.499Z,5.93
2023-05-25T22:02:23.006Z,5.45
2023-05-25T22:04:24.584Z,5.53
2023-05-25T22:06:26.089Z,5.25
2023-05-25T22:08:27.617Z,5.75
2023-05-25T22:10:29.754Z,5.43
2023-05-25T22:12:31.317Z,5.40
2023-05-25T22:14:32.853Z,5.70
2023-05-25T22:16:34.415Z,5.35
2023-05-25T22:18:38.584Z,5.35
2023-05-25T22:20:40.229Z,5.82
2023-05-25T22:22:41.788Z,5.28
2023-05-25T22:24:43.289Z,5.53
2023-05-25T22:26:44.894Z,5.78
2023-05-25T22:28:46.527Z,6.07
2023-05-25T22:30:48.092Z,5.60
2023-05-25T22:32:49.716Z,5.90
2023-05-25T22:34:52.830Z,5.90
2023-05-25T22:36:54.396Z,5.38
2023-05-25T22:38:55.935Z,5.50
2023-05-25T22:40:57.461Z,5.78
2023-05-25T22:42:58.982Z,5.72
2023-05-25T22:45:00.538Z,5.43
2023-05-25T22:47:02.119Z,5.50
2023-05-25T22:49:03.644Z,5.50
2023-05-25T22:51:06.672Z,5.78
2023-05-25T22:53:08.201Z,6.15
2023-05-25T22:55:10.144Z,5.60
2023-05-25T22:57:11.748Z,5.47
2023-05-25T22:59:13.425Z,5.82
2023-05-25T23:01:15.008Z,5.93
2023-05-25T23:03:16.715Z,6.18
2023-05-25T23:05:18.316Z,6.30
2023-05-25T23:07:21.175Z,6.20
2023-05-25T23:09:22.754Z,6.10
2023-05-25T23:11:24.347Z,6.18
2023-05-25T23:13:25.829Z,6.50
2023-05-25T23:15:27.350Z,5.93
2023-05-25T23:17:28.906Z,5.90
2023-05-25T23:19:30.452Z,5.50
2023-05-25T23:21:31.981Z,5.85
2023-05-25T23:23:34.873Z,5.80
2023-05-25T23:25:36.462Z,6.88
2023-05-25T23:27:37.980Z,5.75
2023-05-25T23:29:39.500Z,6.38
2023-05-25T23:31:41.069Z,5.68
2023-05-25T23:33:42.720Z,5.40
2023-05-25T23:35:44.599Z,6.18
2023-05-25T23:37:46.205Z,5.88
2023-05-25T23:39:49.099Z,5.50
2023-05-25T23:41:51.507Z,5.90
2023-05-25T23:43:53.024Z,6.45
2023-05-25T23:45:54.624Z,6.80
2023-05-25T23:47:56.260Z,5.80
2023-05-25T23:49:57.918Z,6.07
2023-05-25T23:51:59.450Z,6.13
2023-05-25T23:54:01.002Z,5.88
2023-05-25T23:56:03.995Z,5.93
2023-05-25T23:58:05.544Z,5.35
